Time,TemperatureF,DewpointF,PressureIn,WindDirection,WindDirectionDegrees,WindSpeedMPH,WindSpeedGustMPH,Humidity,HourlyPrecipIn,Conditions,Clouds,dailyrainin,SolarRadiationWatts/m^2,SoftwareType,DateUTC
2013-02-18 00:02:00,10.0,-1.0,-100.00,West,274,4.0,11.0,59,0.00,,,0.00,0.000000,,2013-02-18 05:02:00,
2013-02-18 00:10:00,9.0,-3.0,-100.00,West,279,5.0,13.0,58,0.00,,,0.00,0.000000,,2013-02-18 05:10:00,
2013-02-18 00:32:00,9.0,-3.0,-100.00,West,279,5.0,13.0,58,0.00,,,0.00,0.000000,,2013-02-18 05:32:00,
2013-02-18 00:42:00,9.0,-3.0,-100.00,West,279,5.0,13.0,58,0.00,,,0.00,0.000000,,2013-02-18 05:42:00,
2013-02-18 00:52:00,9.0,-3.0,-100.00,West,279,5.0,13.0,58,0.00,,,0.00,0.000000,,2013-02-18 05:52:00,
2013-02-18 01:02:00,9.0,-3.0,-100.00,West,279,5.0,13.0,58,0.00,,,0.00,0.000000,,2013-02-18 06:02:00,
2013-02-18 01:10:00,8.0,-3.0,-100.00,West,278,3.0,14.0,59,0.00,,,0.00,0.000000,,2013-02-18 06:10:00,
2013-02-18 01:42:00,8.0,-3.0,-100.00,West,278,3.0,14.0,59,0.00,,,0.00,0.000000,,2013-02-18 06:42:00,
2013-02-18 01:52:00,8.0,-3.0,-100.00,West,278,3.0,14.0,59,0.00,,,0.00,0.000000,,2013-02-18 06:52:00,
2013-02-18 02:02:00,8.0,-3.0,-100.00,West,278,3.0,14.0,59,0.00,,,0.00,0.000000,,2013-02-18 07:02:00,
2013-02-18 02:10:00,8.0,-3.0,-100.00,West,271,5.0,14.0,59,0.00,,,0.00,0.000000,,2013-02-18 07:10:00,
2013-02-18 02:42:00,8.0,-3.0,-100.00,West,271,5.0,14.0,59,0.00,,,0.00,0.000000,,2013-02-18 07:42:00,
2013-02-18 02:52:00,8.0,-3.0,-100.00,West,271,5.0,14.0,59,0.00,,,0.00,0.000000,,2013-02-18 07:52:00,
2013-02-18 03:02:00,8.0,-3.0,-100.00,West,271,5.0,14.0,59,0.00,,,0.00,0.000000,,2013-02-18 08:02:00,
2013-02-18 03:10:00,6.0,-5.0,-100.00,West,275,5.0,13.0,60,0.00,,,0.00,0.000000,,2013-02-18 08:10:00,
2013-02-18 03:33:00,6.0,-5.0,-100.00,West,275,5.0,13.0,60,0.00,,,0.00,0.000000,,2013-02-18 08:33:00,
2013-02-18 03:42:00,6.0,-5.0,-100.00,West,275,5.0,13.0,60,0.00,,,0.00,0.000000,,2013-02-18 08:42:00,
2013-02-18 03:52:00,6.0,-5.0,-100.00,West,275,5.0,13.0,60,0.00,,,0.00,0.000000,,2013-02-18 08:52:00,
2013-02-18 04:03:00,6.0,-5.0,-100.00,West,275,5.0,13.0,60,0.00,,,0.00,0.000000,,2013-02-18 09:03:00,
2013-02-18 04:10:00,5.0,-7.0,-100.00,West,264,7.0,17.0,58,0.00,,,0.00,0.000000,,2013-02-18 09:10:00,
2013-02-18 04:32:00,5.0,-7.0,-100.00,West,264,7.0,17.0,58,0.00,,,0.00,0.000000,,2013-02-18 09:32:00,
2013-02-18 04:42:00,5.0,-7.0,-100.00,West,264,7.0,17.0,58,0.00,,,0.00,0.000000,,2013-02-18 09:42:00,
2013-02-18 04:52:00,5.0,-7.0,-100.00,West,264,7.0,17.0,58,0.00,,,0.00,0.000000,,2013-02-18 09:52:00,
2013-02-18 05:01:00,5.0,-7.0,-100.00,West,264,7.0,17.0,58,0.00,,,0.00,0.000000,,2013-02-18 10:01:00,
2013-02-18 05:10:00,5.0,-7.0,-100.00,West,263,4.0,12.0,57,0.00,,,0.00,0.000000,,2013-02-18 10:10:00,
2013-02-18 05:42:00,5.0,-7.0,-100.00,West,263,4.0,12.0,57,0.00,,,0.00,0.000000,,2013-02-18 10:42:00,
2013-02-18 05:53:00,5.0,-7.0,-100.00,West,263,4.0,12.0,57,0.00,,,0.00,0.000000,,2013-02-18 10:53:00,
2013-02-18 06:02:00,5.0,-7.0,-100.00,West,263,4.0,12.0,57,0.00,,,0.00,0.000000,,2013-02-18 11:02:00,
2013-02-18 06:10:00,5.0,-6.0,-100.00,West,264,5.0,11.0,59,0.00,,,0.00,0.000000,,2013-02-18 11:10:00,
2013-02-18 06:43:00,5.0,-6.0,-100.00,West,264,5.0,11.0,59,0.00,,,0.00,0.000000,,2013-02-18 11:43:00,
2013-02-18 06:53:00,5.0,-6.0,-100.00,West,264,5.0,11.0,59,0.00,,,0.00,0.000000,,2013-02-18 11:53:00,
2013-02-18 07:02:00,5.0,-6.0,-100.00,West,264,5.0,11.0,59,0.00,,,0.00,0.000000,,2013-02-18 12:02:00,
2013-02-18 07:10:00,5.0,-6.0,-100.00,West,272,4.0,9.0,60,0.00,,,0.00,2.000000,,2013-02-18 12:10:00,
2013-02-18 07:32:00,5.0,-6.0,-100.00,West,272,4.0,9.0,60,0.00,,,0.00,2.000000,,2013-02-18 12:32:00,
2013-02-18 07:42:00,5.0,-6.0,-100.00,West,272,4.0,9.0,60,0.00,,,0.00,2.000000,,2013-02-18 12:42:00,
2013-02-18 07:54:00,5.0,-6.0,-100.00,West,272,4.0,9.0,60,0.00,,,0.00,2.000000,,2013-02-18 12:54:00,
2013-02-18 08:10:00,7.0,-5.0,-100.00,West,268,4.0,7.0,57,0.00,,,-99.99,43.000000,,2013-02-18 13:10:00,
2013-02-18 08:42:00,7.0,-5.0,-100.00,West,268,4.0,7.0,57,0.00,,,-99.99,43.000000,,2013-02-18 13:42:00,
2013-02-18 08:53:00,7.0,-5.0,-100.00,West,268,4.0,7.0,57,0.00,,,-99.99,43.000000,,2013-02-18 13:53:00,
2013-02-18 09:02:00,7.0,-5.0,-100.00,West,268,4.0,7.0,57,0.00,,,-99.99,43.000000,,2013-02-18 14:02:00,
2013-02-18 09:10:00,9.0,-5.0,-100.00,West,261,6.0,11.0,53,0.00,,,0.00,123.000000,,2013-02-18 14:10:00,
2013-02-18 09:34:00,9.0,-5.0,-100.00,West,261,6.0,11.0,53,0.00,,,0.00,123.000000,,2013-02-18 14:34:00,
2013-02-18 09:42:00,9.0,-5.0,-100.00,West,261,6.0,11.0,53,0.00,,,0.00,123.000000,,2013-02-18 14:42:00,
2013-02-18 09:54:00,9.0,-5.0,-100.00,West,261,6.0,11.0,53,0.00,,,0.00,123.000000,,2013-02-18 14:54:00,
2013-02-18 10:02:00,9.0,-5.0,-100.00,West,261,6.0,11.0,53,0.00,,,0.00,123.000000,,2013-02-18 15:02:00,
2013-02-18 10:10:00,12.0,-3.0,-100.00,West,271,4.0,10.0,51,0.00,,,0.00,134.000000,,2013-02-18 15:10:00,
2013-02-18 10:42:00,12.0,-3.0,-100.00,West,271,4.0,10.0,51,0.00,,,0.00,134.000000,,2013-02-18 15:42:00,
2013-02-18 10:53:00,12.0,-3.0,-100.00,West,271,4.0,10.0,51,0.00,,,0.00,134.000000,,2013-02-18 15:53:00,
2013-02-18 11:03:00,12.0,-3.0,-100.00,West,271,4.0,10.0,51,0.00,,,0.00,134.000000,,2013-02-18 16:03:00,
2013-02-18 11:10:00,16.0,-2.0,-100.00,West,272,5.0,14.0,45,0.00,,,0.00,123.000000,,2013-02-18 16:10:00,
2013-02-18 11:33:00,16.0,-2.0,-100.00,West,272,5.0,14.0,45,0.00,,,0.00,123.000000,,2013-02-18 16:33:00,
2013-02-18 11:43:00,16.0,-2.0,-100.00,West,272,5.0,14.0,45,0.00,,,0.00,123.000000,,2013-02-18 16:43:00,
2013-02-18 11:53:00,16.0,-2.0,-100.00,West,272,5.0,14.0,45,0.00,,,0.00,123.000000,,2013-02-18 16:53:00,
2013-02-18 12:04:00,16.0,-2.0,-100.00,West,272,5.0,14.0,45,0.00,,,0.00,123.000000,,2013-02-18 17:04:00,
2013-02-18 12:10:00,20.0,0.0,-100.00,West,263,6.0,14.0,41,0.00,,,0.00,239.000000,,2013-02-18 17:10:00,
2013-02-18 12:43:00,20.0,0.0,-100.00,West,263,6.0,14.0,41,0.00,,,0.00,239.000000,,2013-02-18 17:43:00,
2013-02-18 12:53:00,20.0,0.0,-100.00,West,263,6.0,14.0,41,0.00,,,0.00,239.000000,,2013-02-18 17:53:00,
2013-02-18 13:03:00,20.0,0.0,-100.00,West,263,6.0,14.0,41,0.00,,,0.00,239.000000,,2013-02-18 18:03:00,
2013-02-18 13:10:00,26.0,2.0,-100.00,West,278,4.0,14.0,35,0.00,,,0.00,321.000000,,2013-02-18 18:10:00,
2013-02-18 13:33:00,26.0,2.0,-100.00,West,278,4.0,14.0,35,0.00,,,0.00,321.000000,,2013-02-18 18:33:00,
2013-02-18 13:43:00,26.0,2.0,-100.00,West,278,4.0,14.0,35,0.00,,,0.00,321.000000,,2013-02-18 18:43:00,
2013-02-18 13:53:00,26.0,2.0,-100.00,West,278,4.0,14.0,35,0.00,,,0.00,321.000000,,2013-02-18 18:53:00,
2013-02-18 14:03:00,26.0,2.0,-100.00,West,278,4.0,14.0,35,0.00,,,0.00,321.000000,,2013-02-18 19:03:00,
2013-02-18 14:10:00,22.0,-2.0,-100.00,West,266,6.0,16.0,34,0.00,,,0.00,231.000000,,2013-02-18 19:10:00,
2013-02-18 14:43:00,22.0,-2.0,-100.00,West,266,6.0,16.0,34,0.00,,,0.00,231.000000,,2013-02-18 19:43:00,
2013-02-18 14:53:00,22.0,-2.0,-100.00,West,266,6.0,16.0,34,0.00,,,0.00,231.000000,,2013-02-18 19:53:00,
2013-02-18 15:03:00,22.0,-2.0,-100.00,West,266,6.0,16.0,34,0.00,,,0.00,231.000000,,2013-02-18 20:03:00,
2013-02-18 16:10:00,24.0,-11.0,-100.00,West,278,4.0,11.0,20,-99.99,,,0.00,124.000000,,2013-02-18 21:10:00,
2013-02-18 16:43:00,24.0,-11.0,-100.00,West,278,4.0,11.0,20,-99.99,,,0.00,124.000000,,2013-02-18 21:43:00,
2013-02-18 16:53:00,24.0,-11.0,-100.00,West,278,4.0,11.0,20,-99.99,,,0.00,124.000000,,2013-02-18 21:53:00,
2013-02-18 17:03:00,24.0,-11.0,-100.00,West,278,4.0,11.0,20,-99.99,,,0.00,124.000000,,2013-02-18 22:03:00,
2013-02-18 18:10:00,14.0,-8.0,-100.00,WNW,288,2.0,5.0,36,-99.99,,,0.00,1.000000,,2013-02-18 23:10:00,
2013-02-18 18:34:00,14.0,-8.0,-100.00,WNW,288,2.0,5.0,36,-99.99,,,0.00,1.000000,,2013-02-18 23:34:00,
2013-02-18 18:43:00,14.0,-8.0,-100.00,WNW,288,2.0,5.0,36,-99.99,,,0.00,1.000000,,2013-02-18 23:43:00,
2013-02-18 18:54:00,14.0,-8.0,-100.00,WNW,288,2.0,5.0,36,-99.99,,,0.00,1.000000,,2013-02-18 23:54:00,
2013-02-18 19:03:00,14.0,-8.0,-100.00,WNW,288,2.0,5.0,36,-99.99,,,0.00,1.000000,,2013-02-19 00:03:00,
2013-02-18 19:10:00,8.0,-7.0,-100.00,NE,54,1.0,2.0,49,0.00,,,0.00,0.000000,,2013-02-19 00:10:00,
2013-02-18 19:36:00,8.0,-7.0,-100.00,NE,54,1.0,2.0,49,0.00,,,0.00,0.000000,,2013-02-19 00:36:00,
2013-02-18 19:44:00,8.0,-7.0,-100.00,NE,54,1.0,2.0,49,0.00,,,0.00,0.000000,,2013-02-19 00:44:00,
2013-02-18 19:55:00,8.0,-7.0,-100.00,NE,54,1.0,2.0,49,0.00,,,0.00,0.000000,,2013-02-19 00:55:00,
2013-02-18 20:03:00,8.0,-7.0,-100.00,NE,54,1.0,2.0,49,0.00,,,0.00,0.000000,,2013-02-19 01:03:00,
2013-02-18 20:10:00,5.0,-7.0,-100.00,East,97,3.0,4.0,56,0.00,,,-99.99,0.000000,,2013-02-19 01:10:00,
2013-02-18 20:45:00,5.0,-7.0,-100.00,East,97,3.0,4.0,56,0.00,,,-99.99,0.000000,,2013-02-19 01:45:00,
2013-02-18 21:04:00,5.0,-7.0,-100.00,East,97,3.0,4.0,56,0.00,,,-99.99,0.000000,,2013-02-19 02:04:00,
2013-02-18 21:10:00,3.0,-8.0,-100.00,NNE,15,1.0,3.0,60,0.00,,,0.00,0.000000,,2013-02-19 02:10:00,
2013-02-18 21:44:00,3.0,-8.0,-100.00,NNE,15,1.0,3.0,60,0.00,,,0.00,0.000000,,2013-02-19 02:44:00,
2013-02-18 21:56:00,3.0,-8.0,-100.00,NNE,15,1.0,3.0,60,0.00,,,0.00,0.000000,,2013-02-19 02:56:00,
2013-02-18 22:07:00,3.0,-8.0,-100.00,NNE,15,1.0,3.0,60,0.00,,,0.00,0.000000,,2013-02-19 03:07:00,
2013-02-18 22:10:00,1.0,-9.0,-100.00,ESE,110,1.0,3.0,62,0.00,,,0.00,0.000000,,2013-02-19 03:10:00,
2013-02-18 22:35:00,1.0,-9.0,-100.00,ESE,110,1.0,3.0,62,0.00,,,0.00,0.000000,,2013-02-19 03:35:00,
2013-02-18 22:45:00,1.0,-9.0,-100.00,ESE,110,1.0,3.0,62,0.00,,,0.00,0.000000,,2013-02-19 03:45:00,
2013-02-18 22:55:00,1.0,-9.0,-100.00,ESE,110,1.0,3.0,62,0.00,,,0.00,0.000000,,2013-02-19 03:55:00,
2013-02-18 23:03:00,1.0,-9.0,-100.00,ESE,110,1.0,3.0,62,0.00,,,0.00,0.000000,,2013-02-19 04:03:00,
2013-02-18 23:10:00,-1.0,-10.0,-100.00,East,101,1.0,3.0,65,0.00,,,0.00,0.000000,,2013-02-19 04:10:00,
2013-02-18 23:34:00,-1.0,-10.0,-100.00,East,101,1.0,3.0,65,0.00,,,0.00,0.000000,,2013-02-19 04:34:00,
2013-02-18 23:45:00,-1.0,-10.0,-100.00,East,101,1.0,3.0,65,0.00,,,0.00,0.000000,,2013-02-19 04:45:00,
2013-02-18 23:56:00,-1.0,-10.0,-100.00,East,101,1.0,3.0,65,0.00,,,0.00,0.000000,,2013-02-19 04:56:00,